Boulder City, Nevada Weather observations

Data are for observation ending at time listed.
 Day   Time    Ave.   Ave.  Ave.  Vector   Max.   Stn.    Total    Solar   Ave.  
  of    of     Air    Rel.  Wind   Wind    Wind   Baro.  Precip.   Rad.    Soil  
Year   Day     Temp.  Hum.  Speed  Dir.    Gust   Pres.                    Temp. 
2015   (PST)    F      %     mph   deg.    mph     mb.     in.     W/m2     F   
------------------------------------------------------------------------------
 148    7:10   81.0    13    2.9    18      5.4   932.0    0.00     475    79.8
 148    7:20   81.8    13    2.6    31      5.6   932.1    0.00     507    79.8
 148    7:30   82.8    13    2.0    38      4.2   932.2    0.00     539    79.8
 148    7:40   83.0    13    2.3    18      5.0   932.4    0.00     570    79.9
 148    7:50   82.9    13    3.0    23      6.3   932.5    0.00     602    80.0
 148    8:00   83.4    13    3.0    27      5.2   932.5    0.00     632    80.1
 148    8:10   83.8    13    2.7    14      6.4   932.5    0.00     662    80.2
 148    8:20   84.3    12    2.4    24      5.7   932.6    0.00     689    80.4
 148    8:30   84.7    12    3.2    15      7.5   932.5    0.00     716    80.5
 148    8:40   84.8    12    2.9    33      6.1   932.5    0.00     740    80.7
 148    8:50   85.6    12    2.7    25      6.6   932.6    0.00     766    80.9
 148    9:00   85.8    12    2.4    15      6.6   932.6    0.00     790    81.1
 148    9:10   86.7    12    1.5    58      4.0   932.6    0.00     783    81.4
 148    9:20   88.1    12    1.9    79      8.3   932.7    0.00     829    81.6
 148    9:30   89.5    11    1.4   104      5.0   932.7    0.00     839    81.9
 148    9:40   88.7    12    3.0   139      6.3   932.7    0.00     847    82.2
 148    9:50   88.9    12    3.2    95      7.0   932.8    0.00     867    82.5
 148   10:00   89.6    12    3.6   129      9.7   932.7    0.00     817    82.8
 148   10:10   88.9    13    3.5   164      8.6   932.7    0.00     801    83.2
 148   10:20   89.3    12    1.6   100      6.2   932.7    0.00     872    83.6
 148   10:30   89.4    12    3.9   127      9.8   932.6    0.00     886    83.9
 148   10:40   89.6    12    2.9    18      7.7   932.6    0.00     945    84.4
 148   10:50   91.6    11    2.0    80      5.5   932.4    0.00     940    84.8
 148   11:00   92.4    11    2.5    95      6.8   932.4    0.00     909    85.2
 148   11:10   91.9    12    2.4    40      5.2   932.4    0.00     936    85.6
 148   11:20   90.9    12    3.1    54      8.4   932.4    0.00     934    86.0
 148   11:30   91.3    11    2.6   132      8.9   932.3    0.00     973    86.5
 148   11:40   91.9    11    2.1   172      7.8   932.1    0.00     974    86.9
 148   11:50   92.2    11    4.3   128      9.5   932.0    0.00     975    87.3
 148   12:00   91.9    11    3.0   217      7.2   931.8    0.00     972    87.8
 148   12:10   92.1    11    3.8   221     11.5   931.7    0.00     967    88.2
 148   12:20   93.6    11    4.2    86     10.9   931.5    0.00     964    88.6
 148   12:30   93.9    10    5.4   140     12.3   931.4    0.00     956    89.1
 148   12:40   93.3    10    3.4   164      8.1   931.3    0.00     945    89.5
 148   12:50   93.0    10    5.1   186     12.3   931.1    0.00     939    89.9
 148   13:00   93.6    10    4.7   112     17.3   931.0    0.00     921    90.3
 148   13:10   94.3    10    5.1    97     11.0   930.8    0.00     915    90.7
 148   13:20   94.3    10    4.3   111     13.9   930.8    0.00     902    91.1
 148   13:30   95.2    10    5.4    97     15.6   930.8    0.00     870    91.5
 148   13:40   94.1    10    4.1    90     13.0   930.8    0.00     861    91.8
 148   13:50   94.8    10    5.9   119     15.9   930.7    0.00     841    92.1
 148   14:00   94.8    10    5.3   203      9.1   930.7    0.00     808    92.4
 148   14:10   94.6    10    3.1   161     12.9   930.7    0.00     791    92.7
 148   14:20   96.1     9    3.1   196     11.4   930.6    0.00     775    93.0
 148   14:30   96.6     9    4.4   134     10.4   930.6    0.00     767    93.3
 148   14:40   96.4     9    5.8    86     13.4   930.6    0.00     731    93.5
 148   14:50   95.5     9    3.2    19      6.1   930.3    0.00     657    93.7
 148   15:00   95.8     9    4.1    99     10.6   930.1    0.00     701    93.9
 148   15:10   96.9     9    3.8   122     10.1   930.1    0.00     606    94.0
 148   15:20   96.7     9    5.2   121     10.8   930.0    0.00     582    94.1
 148   15:30   95.4     9    3.7   131     10.2   929.8    0.00     571    94.1
 148   15:40   95.9     9    5.1   130      9.4   929.7    0.00     506    94.1
 148   15:50   95.9     9    5.7   131     11.8   929.6    0.00     477    94.0
 148   16:00   95.9     9    4.8   115      9.2   929.5    0.00     393    94.0
 148   16:10   94.9     9    3.9    88      7.6   929.5    0.00     397    93.9
 148   16:20   95.0    10    4.8    97      9.9   929.3    0.00     314    93.9
 148   16:30   94.6    10    5.4    92     11.5   929.1    0.00     309    93.8
 148   16:40   94.6    10    3.9    96     10.6   929.0    0.00     293    93.8
 148   16:50   94.4    10    5.3   103     10.6   928.9    0.00     279    93.7
 148   17:00   93.5    10    5.8   110     12.1   928.8    0.00     153    93.6
 148   17:10   92.6    10    4.8    81      9.9   928.7    0.00     173    93.5
 148   17:20   92.8    10    4.6   100      9.1   928.7    0.00     159    93.4
 148   17:30   92.5    10    4.2    98      9.5   928.7    0.00     119    93.3
 148   17:40   91.9    10    4.3   118      9.3   928.7    0.00      86    93.1
 148   17:50   91.5    10    2.7   121      6.7   928.6    0.00      57    92.9
 148   18:00   91.0    10    4.5   148      8.9   928.6    0.00      43    92.8
 148   18:10   90.7    10    5.0   176     12.1   928.6    0.00      31    92.7
 148   18:20   90.3    10    4.6   174     10.2   928.6    0.00      19    92.5
 148   18:30   90.1    10    4.9   174     13.1   928.7    0.00      12    92.4
 148   18:40   89.8    10    4.6   175      9.7   928.7    0.00       7    92.2
 148   18:50   89.4    10    4.6   176      9.7   928.7    0.00       2    92.1
 148   19:00   89.2    10    5.9   175     10.8   928.7    0.00       0    92.0
 148   19:10   88.8    11    4.7   188      8.6   928.7    0.00       0    91.8
 148   19:20   88.5    11    6.3   191     12.3   928.7    0.00       0    91.7
 148   19:30   88.2    11    6.5   191     10.0   928.8    0.00       0    91.5
 148   19:40   88.0    11    6.4   195      9.9   928.8    0.00       0    91.3
 148   19:50   87.7    11    4.8   192      9.1   928.8    0.00       0    91.2
 148   20:00   87.5    11    4.6   188      8.5   928.9    0.00       0    91.0
 148   20:10   87.5    11    4.1   186      8.8   929.0    0.00       0    90.9
 148   20:20   87.4    11    4.4   183     12.0   929.1    0.00       0    90.8
 148   20:30   87.2    12    5.3   210     12.6   929.2    0.00       0    90.6
 148   20:40   86.4    12    4.1   221      6.7   929.3    0.00       0    90.4
 148   20:50   86.8    12    6.2   194     13.4   929.3    0.00       0    90.2
 148   21:00   87.5    12    8.0   166     17.8   929.3    0.00       0    90.1
 148   21:10   87.2    12    5.7   199     10.5   929.4    0.00       0    90.0
 148   21:20   86.6    12    5.5   219      9.7   929.4    0.00       0    89.8
 148   21:30   86.5    12    5.2   205      8.6   929.4    0.00       0    89.7
 148   21:40   86.3    12    4.2   207      8.6   929.5    0.00       0    89.5
 148   21:50   86.1    12    4.6   202      9.7   929.4    0.00       0    89.4
 148   22:00   85.9    12    4.5   217      8.7   929.4    0.00       0    89.3
 148   22:10   85.5    12    4.6   218      8.9   929.4    0.00       0    89.1
 148   22:20   85.1    12    4.6   230     10.0   929.4    0.00       0    89.0
 148   22:30   84.8    12    5.2   226      9.0   929.4    0.00       0    88.9
 148   22:40   84.6    12    4.3   223      6.7   929.4    0.00       0    88.8
 148   22:50   84.3    12    4.5   227      8.0   929.4    0.00       0    88.7
 148   23:00   83.9    12    4.5   236      6.3   929.3    0.00       0    88.6
 148   23:10   83.6    12    3.7   223      6.3   929.3    0.00       0    88.4
 148   23:20   83.4    12    4.3   228      6.1   929.2    0.00       0    88.3
 148   23:30   82.9    12    3.7   230      6.1   929.2    0.00       0    88.1
 148   23:40   82.8    12    3.7   230      6.7   929.1    0.00       0    88.0
 148   23:50   81.8    13    2.1   198      3.7   929.0    0.00       0    87.9
 149    0:00   80.4    13    2.5   149      6.2   929.0    0.00       0    87.8
 149    0:10   81.5    13    3.1   180      8.8   929.0    0.00       0    87.7
 149    0:20   81.8    13    3.1   181      5.8   929.0    0.00       0    87.5
 149    0:30   81.7    13    3.0   183      5.5   929.1    0.00       0    87.4
 149    0:40   81.7    13    4.0   179      7.4   929.1    0.00       0    87.3
 149    0:50   81.0    13    3.9   174      6.9   929.1    0.00       0    87.2
 149    1:00   79.6    14    2.9   186      5.1   929.1    0.00       0    87.0
 149    1:10   78.1    14    2.7   210      5.0   929.1    0.00       0    86.9
 149    1:20   77.4    15    2.6   247      4.2   929.0    0.00       0    86.8
 149    1:30   77.7    14    3.2   229      5.3   929.0    0.00       0    86.7
 149    1:40   76.6    15    2.2   209      3.7   928.9    0.00       0    86.5
 149    1:50   76.0    16    2.9   219      3.8   928.9    0.00       0    86.4
 149    2:00   75.3    16    2.2   196      3.5   928.9    0.00       0    86.3
 149    2:10   76.2    15    3.0   231      4.3   928.8    0.00       0    86.2
 149    2:20   78.0    14    3.9   241      5.8   928.7    0.00       0    86.1
 149    2:30   78.8    14    4.3   235      6.3   928.8    0.00       0    85.9
 149    2:40   77.3    14    2.5   224      4.0   928.9    0.00       0    85.8
 149    2:50   76.5    15    1.6   264      3.0   929.1    0.00       0    85.7
 149    3:00   76.1    15    1.4   270      3.7   929.1    0.00       0    85.6
 149    3:10   75.6    15    1.9   231      2.9   929.1    0.00       0    85.4
 149    3:20   74.5    16    2.2   224      3.3   929.1    0.00       0    85.3
 149    3:30   73.3    17    1.2   247      3.2   929.1    0.00       0    85.1
 149    3:40   73.7    16    1.2   262      2.6   929.1    0.00       0    85.0
 149    3:50   74.3    16    1.7   239      3.1   929.1    0.00       0    84.9
 149    4:00   73.8    16    1.6   275      3.1   929.2    0.00       0    84.8
 149    4:10   73.4    16    1.4   242      2.0   929.3    0.00       0    84.7
 149    4:20   72.2    18    2.2   220      2.9   929.4    0.00       1    84.5
 149    4:30   71.8    18    1.2   243      2.5   929.5    0.00       3    84.4
 149    4:40   71.8    18    2.0   222      2.6   929.6    0.00       6    84.3
 149    4:50   71.9    18    1.8   225      2.8   929.7    0.00      13    84.2
 149    5:00   72.2    18    1.0   226      1.8   929.8    0.00      22    84.1
 149    5:10   72.9    18    1.1   236      2.3   930.0    0.00      30    83.9
 149    5:20   73.8    17    0.2   197      0.8   930.1    0.00      33    83.8
 149    5:30   75.3    17    0.1   235      0.6   930.2    0.00      79    83.7
 149    5:40   76.6    16    0.0     0      0.0   930.4    0.00      60    83.6
 149    5:50   78.9    16    0.0   326      0.7   930.6    0.00     158    83.5
 149    6:00   82.8    13    0.9     4      3.3   930.8    0.00     176    83.3
 149    6:10   84.1    12    1.4    25      3.7   931.0    0.00     140    83.2
 149    6:20   84.5    12    2.1    17      4.0   931.2    0.00     303    83.2
 149    6:30   83.7    12    2.6    18      5.3   931.5    0.00     336    83.1
 149    6:40   83.9    12    2.5    13      4.8   931.7    0.00     370    83.0
 149    6:50   84.1    12    2.7    12      5.4   932.0    0.00     404    83.0
 149    7:00   84.1    12    3.1    17      6.4   932.3    0.00     438    82.9

Return to Boulder City, Nevada graphs page.


Western Regional Climate Center,wrcc@dri.edu